sensor_id;sensor_type;location;lat;lon;timestamp;pressure;altitude;pressure_sealevel;temperature;humidity
36222;BME280;22266;52.340;4.962;2023-04-07T00:00:24;101414.69;;;8.96;85.80
36222;BME280;22266;52.340;4.962;2023-04-07T00:02:51;101418.53;;;8.93;85.66
36222;BME280;22266;52.340;4.962;2023-04-07T00:05:17;101419.69;;;8.90;85.38
36222;BME280;22266;52.340;4.962;2023-04-07T00:07:44;101415.34;;;8.89;85.27
36222;BME280;22266;52.340;4.962;2023-04-07T00:10:22;101417.38;;;8.87;85.49
36222;BME280;22266;52.340;4.962;2023-04-07T00:12:48;101418.03;;;8.89;85.97
36222;BME280;22266;52.340;4.962;2023-04-07T00:15:16;101413.66;;;8.88;85.64
36222;BME280;22266;52.340;4.962;2023-04-07T00:17:43;101426.91;;;8.90;85.68
36222;BME280;22266;52.340;4.962;2023-04-07T00:20:10;101417.84;;;8.91;84.86
36222;BME280;22266;52.340;4.962;2023-04-07T00:22:36;101425.91;;;8.91;85.80
36222;BME280;22266;52.340;4.962;2023-04-07T00:25:03;101432.13;;;8.91;85.64
36222;BME280;22266;52.340;4.962;2023-04-07T00:27:29;101435.66;;;8.92;85.87
36222;BME280;22266;52.340;4.962;2023-04-07T00:29:56;101433.81;;;8.93;85.35
36222;BME280;22266;52.340;4.962;2023-04-07T00:32:22;101440.84;;;8.94;85.58
36222;BME280;22266;52.340;4.962;2023-04-07T00:34:49;101442.19;;;8.98;85.53
36222;BME280;22266;52.340;4.962;2023-04-07T00:37:15;101431.25;;;8.99;85.63
36222;BME280;22266;52.340;4.962;2023-04-07T00:39:42;101427.41;;;9.02;85.43
36222;BME280;22266;52.340;4.962;2023-04-07T00:42:09;101432.59;;;9.03;85.01
36222;BME280;22266;52.340;4.962;2023-04-07T00:44:36;101425.03;;;9.07;85.27
36222;BME280;22266;52.340;4.962;2023-04-07T00:47:02;101434.44;;;9.11;85.03
36222;BME280;22266;52.340;4.962;2023-04-07T00:49:29;101432.59;;;9.11;84.69
36222;BME280;22266;52.340;4.962;2023-04-07T00:51:57;101433.59;;;9.10;85.30
36222;BME280;22266;52.340;4.962;2023-04-07T00:54:23;101435.28;;;9.11;85.34
36222;BME280;22266;52.340;4.962;2023-04-07T00:56:51;101434.28;;;9.12;84.43
36222;BME280;22266;52.340;4.962;2023-04-07T00:59:18;101438.97;;;9.10;84.45
36222;BME280;22266;52.340;4.962;2023-04-07T01:01:57;101436.13;;;9.12;84.35
36222;BME280;22266;52.340;4.962;2023-04-07T01:04:32;101424.72;;;9.10;84.59
36222;BME280;22266;52.340;4.962;2023-04-07T01:07:10;101431.09;;;9.09;84.33
36222;BME280;22266;52.340;4.962;2023-04-07T01:09:56;101443.34;;;9.11;84.34
36222;BME280;22266;52.340;4.962;2023-04-07T01:15:11;101438.47;;;9.07;84.04
36222;BME280;22266;52.340;4.962;2023-04-07T01:17:47;101445.38;;;9.09;84.66
36222;BME280;22266;52.340;4.962;2023-04-07T01:20:16;101444.19;;;9.12;84.20
36222;BME280;22266;52.340;4.962;2023-04-07T01:22:50;101444.84;;;9.14;84.27
36222;BME280;22266;52.340;4.962;2023-04-07T01:28:33;101441.34;;;9.13;84.41
36222;BME280;22266;52.340;4.962;2023-04-07T01:31:08;101440.16;;;9.16;83.62
36222;BME280;22266;52.340;4.962;2023-04-07T01:33:36;101443.84;;;9.15;83.81
36222;BME280;22266;52.340;4.962;2023-04-07T01:36:05;101433.28;;;9.05;83.52
36222;BME280;22266;52.340;4.962;2023-04-07T01:38:33;101435.47;;;9.02;83.92
36222;BME280;22266;52.340;4.962;2023-04-07T01:41:01;101444.03;;;9.05;84.15
36222;BME280;22266;52.340;4.962;2023-04-07T01:43:29;101438.97;;;9.10;83.98
36222;BME280;22266;52.340;4.962;2023-04-07T01:45:56;101438.66;;;9.13;83.60
36222;BME280;22266;52.340;4.962;2023-04-07T01:48:23;101445.53;;;9.16;83.34
36222;BME280;22266;52.340;4.962;2023-04-07T01:50:52;101443.84;;;9.15;83.79
36222;BME280;22266;52.340;4.962;2023-04-07T01:53:20;101444.69;;;9.15;83.99
36222;BME280;22266;52.340;4.962;2023-04-07T01:55:46;101448.22;;;9.16;83.60
36222;BME280;22266;52.340;4.962;2023-04-07T01:58:13;101449.06;;;9.16;83.23
36222;BME280;22266;52.340;4.962;2023-04-07T02:00:41;101445.88;;;9.13;83.01
36222;BME280;22266;52.340;4.962;2023-04-07T02:03:27;101448.56;;;9.13;83.77
36222;BME280;22266;52.340;4.962;2023-04-07T02:05:58;101449.56;;;9.12;83.95
36222;BME280;22266;52.340;4.962;2023-04-07T02:08:29;101437.97;;;9.11;84.05
36222;BME280;22266;52.340;4.962;2023-04-07T02:11:00;101446.00;;;9.11;83.14
36222;BME280;22266;52.340;4.962;2023-04-07T02:13:33;101437.13;;;9.11;83.40
36222;BME280;22266;52.340;4.962;2023-04-07T02:16:00;101441.00;;;9.08;83.25
36222;BME280;22266;52.340;4.962;2023-04-07T02:18:29;101446.19;;;9.10;83.28
36222;BME280;22266;52.340;4.962;2023-04-07T02:20:59;101445.38;;;9.09;83.60
36222;BME280;22266;52.340;4.962;2023-04-07T02:23:28;101446.38;;;9.08;83.54
36222;BME280;22266;52.340;4.962;2023-04-07T02:25:56;101450.91;;;9.08;83.92
36222;BME280;22266;52.340;4.962;2023-04-07T02:28:23;101445.38;;;9.09;84.20
36222;BME280;22266;52.340;4.962;2023-04-07T02:30:49;101443.34;;;9.11;84.21
36222;BME280;22266;52.340;4.962;2023-04-07T02:33:16;101440.50;;;9.13;83.81
36222;BME280;22266;52.340;4.962;2023-04-07T02:35:42;101443.00;;;9.14;83.80
36222;BME280;22266;52.340;4.962;2023-04-07T02:38:09;101440.16;;;9.16;84.02
36222;BME280;22266;52.340;4.962;2023-04-07T02:40:35;101450.22;;;9.14;83.51
36222;BME280;22266;52.340;4.962;2023-04-07T02:43:02;101445.03;;;9.12;83.36
36222;BME280;22266;52.340;4.962;2023-04-07T02:45:30;101453.25;;;9.11;84.08
36222;BME280;22266;52.340;4.962;2023-04-07T02:47:56;101452.25;;;9.12;83.78
36222;BME280;22266;52.340;4.962;2023-04-07T02:50:23;101454.59;;;9.07;83.70
36222;BME280;22266;52.340;4.962;2023-04-07T02:52:51;101457.97;;;9.01;83.87
36222;BME280;22266;52.340;4.962;2023-04-07T02:55:17;101446.41;;;8.92;83.92
36222;BME280;22266;52.340;4.962;2023-04-07T02:57:44;101452.59;;;8.93;84.20
36222;BME280;22266;52.340;4.962;2023-04-07T03:00:21;101460.16;;;8.89;83.35
36222;BME280;22266;52.340;4.962;2023-04-07T03:02:57;101451.41;;;8.87;84.22
36222;BME280;22266;52.340;4.962;2023-04-07T03:05:27;101449.75;;;8.86;83.27
36222;BME280;22266;52.340;4.962;2023-04-07T03:07:53;101451.91;;;8.82;83.62
36222;BME280;22266;52.340;4.962;2023-04-07T03:10:20;101455.44;;;8.83;84.55
36222;BME280;22266;52.340;4.962;2023-04-07T03:12:46;101451.91;;;8.82;84.47
36222;BME280;22266;52.340;4.962;2023-04-07T03:15:13;101451.91;;;8.82;84.68
36222;BME280;22266;52.340;4.962;2023-04-07T03:17:44;101455.78;;;8.80;84.60
36222;BME280;22266;52.340;4.962;2023-04-07T03:20:11;101453.94;;;8.72;84.20
36222;BME280;22266;52.340;4.962;2023-04-07T03:22:38;101445.56;;;8.67;84.74
36222;BME280;22266;52.340;4.962;2023-04-07T03:25:09;101455.94;;;8.70;84.95
36222;BME280;22266;52.340;4.962;2023-04-07T03:27:36;101447.06;;;8.78;84.58
36222;BME280;22266;52.340;4.962;2023-04-07T03:30:05;101447.88;;;8.78;85.01
36222;BME280;22266;52.340;4.962;2023-04-07T03:32:32;101452.94;;;8.81;84.21
36222;BME280;22266;52.340;4.962;2023-04-07T03:34:58;101453.09;;;8.80;83.92
36222;BME280;22266;52.340;4.962;2023-04-07T03:37:25;101449.59;;;8.79;84.67
36222;BME280;22266;52.340;4.962;2023-04-07T03:39:53;101446.41;;;8.76;84.41
36222;BME280;22266;52.340;4.962;2023-04-07T03:42:24;101450.56;;;8.70;83.54
36222;BME280;22266;52.340;4.962;2023-04-07T03:44:56;101443.53;;;8.69;83.98
36222;BME280;22266;52.340;4.962;2023-04-07T03:47:23;101451.91;;;8.66;83.99
36222;BME280;22266;52.340;4.962;2023-04-07T03:49:55;101458.81;;;8.69;84.15
36222;BME280;22266;52.340;4.962;2023-04-07T03:52:22;101447.38;;;8.66;83.78
36222;BME280;22266;52.340;4.962;2023-04-07T03:54:52;101454.94;;;8.71;84.37
36222;BME280;22266;52.340;4.962;2023-04-07T03:57:23;101456.44;;;8.74;84.39
36222;BME280;22266;52.340;4.962;2023-04-07T03:59:50;101460.78;;;8.66;83.74
36222;BME280;22266;52.340;4.962;2023-04-07T04:02:17;101460.97;;;8.65;83.95
36222;BME280;22266;52.340;4.962;2023-04-07T04:04:48;101468.19;;;8.64;84.32
36222;BME280;22266;52.340;4.962;2023-04-07T04:07:16;101461.16;;;8.63;84.05
36222;BME280;22266;52.340;4.962;2023-04-07T04:09:46;101467.19;;;8.65;84.16
36222;BME280;22266;52.340;4.962;2023-04-07T04:12:13;101464.34;;;8.67;84.11
36222;BME280;22266;52.340;4.962;2023-04-07T04:14:49;101469.03;;;8.73;83.83
36222;BME280;22266;52.340;4.962;2023-04-07T04:17:16;101471.38;;;8.76;83.95
36222;BME280;22266;52.340;4.962;2023-04-07T04:19:45;101466.53;;;8.80;83.79
36222;BME280;22266;52.340;4.962;2023-04-07T04:22:23;101464.50;;;8.82;83.26
36222;BME280;22266;52.340;4.962;2023-04-07T04:24:53;101475.09;;;8.83;83.00
36222;BME280;22266;52.340;4.962;2023-04-07T04:27:22;101468.03;;;8.82;82.74
36222;BME280;22266;52.340;4.962;2023-04-07T04:29:55;101473.38;;;8.82;82.80
36222;BME280;22266;52.340;4.962;2023-04-07T04:32:32;101474.72;;;8.86;82.82
36222;BME280;22266;52.340;4.962;2023-04-07T04:34:59;101482.97;;;8.85;82.60
36222;BME280;22266;52.340;4.962;2023-04-07T04:37:29;101487.50;;;8.84;82.64
36222;BME280;22266;52.340;4.962;2023-04-07T04:39:55;101485.97;;;8.82;83.24
36222;BME280;22266;52.340;4.962;2023-04-07T04:42:23;101477.09;;;8.81;82.89
36222;BME280;22266;52.340;4.962;2023-04-07T04:44:52;101487.16;;;8.79;82.30
36222;BME280;22266;52.340;4.962;2023-04-07T04:47:20;101485.47;;;8.78;82.67
36222;BME280;22266;52.340;4.962;2023-04-07T04:49:47;101489.84;;;8.79;83.05
36222;BME280;22266;52.340;4.962;2023-04-07T04:52:13;101493.19;;;8.81;83.50
36222;BME280;22266;52.340;4.962;2023-04-07T04:54:43;101491.19;;;8.83;82.78
36222;BME280;22266;52.340;4.962;2023-04-07T04:57:10;101498.91;;;8.86;82.94
36222;BME280;22266;52.340;4.962;2023-04-07T04:59:37;101498.38;;;8.83;82.27
36222;BME280;22266;52.340;4.962;2023-04-07T05:02:05;101501.94;;;8.75;83.07
36222;BME280;22266;52.340;4.962;2023-04-07T05:04:31;101504.44;;;8.77;83.39
36222;BME280;22266;52.340;4.962;2023-04-07T05:07:07;101503.75;;;8.83;83.57
36222;BME280;22266;52.340;4.962;2023-04-07T05:09:33;101498.25;;;8.84;83.09
36222;BME280;22266;52.340;4.962;2023-04-07T05:12:01;101489.84;;;8.87;82.92
36222;BME280;22266;52.340;4.962;2023-04-07T05:14:31;101502.94;;;8.90;83.00
36222;BME280;22266;52.340;4.962;2023-04-07T05:17:03;101506.94;;;8.86;83.04
36222;BME280;22266;52.340;4.962;2023-04-07T05:19:29;101498.06;;;8.78;82.82
36222;BME280;22266;52.340;4.962;2023-04-07T05:22:02;101505.94;;;8.71;82.85
36222;BME280;22266;52.340;4.962;2023-04-07T05:24:34;101507.78;;;8.71;83.25
36222;BME280;22266;52.340;4.962;2023-04-07T05:27:01;101509.97;;;8.75;83.64
36222;BME280;22266;52.340;4.962;2023-04-07T05:29:29;101519.19;;;8.73;83.10
36222;BME280;22266;52.340;4.962;2023-04-07T05:31:56;101515.69;;;8.72;83.26
36222;BME280;22266;52.340;4.962;2023-04-07T05:34:24;101519.72;;;8.76;83.79
36222;BME280;22266;52.340;4.962;2023-04-07T05:36:53;101523.22;;;8.77;83.42
36222;BME280;22266;52.340;4.962;2023-04-07T05:39:20;101521.88;;;8.81;83.74
36222;BME280;22266;52.340;4.962;2023-04-07T05:41:50;101526.75;;;8.85;83.90
36222;BME280;22266;52.340;4.962;2023-04-07T05:44:19;101528.59;;;8.85;83.23
36222;BME280;22266;52.340;4.962;2023-04-07T05:46:45;101524.06;;;8.85;83.03
36222;BME280;22266;52.340;4.962;2023-04-07T05:49:14;101532.81;;;8.87;83.05
36222;BME280;22266;52.340;4.962;2023-04-07T05:51:50;101531.78;;;8.80;83.43
36222;BME280;22266;52.340;4.962;2023-04-07T05:54:16;101528.09;;;8.81;83.57
36222;BME280;22266;52.340;4.962;2023-04-07T05:56:43;101534.47;;;8.80;83.15
36222;BME280;22266;52.340;4.962;2023-04-07T05:59:10;101540.84;;;8.79;83.17
36222;BME280;22266;52.340;4.962;2023-04-07T06:01:37;101545.88;;;8.82;83.08
36222;BME280;22266;52.340;4.962;2023-04-07T06:04:04;101545.56;;;8.85;83.45
36222;BME280;22266;52.340;4.962;2023-04-07T06:06:32;101544.53;;;8.86;83.27
36222;BME280;22266;52.340;4.962;2023-04-07T06:08:58;101540.88;;;8.87;83.12
36222;BME280;22266;52.340;4.962;2023-04-07T06:11:25;101555.97;;;8.88;83.10
36222;BME280;22266;52.340;4.962;2023-04-07T06:13:52;101550.59;;;8.88;82.60
36222;BME280;22266;52.340;4.962;2023-04-07T06:16:19;101557.13;;;8.86;82.75
36222;BME280;22266;52.340;4.962;2023-04-07T06:18:45;101554.63;;;8.84;83.30
36222;BME280;22266;52.340;4.962;2023-04-07T06:21:12;101560.81;;;8.85;82.86
36222;BME280;22266;52.340;4.962;2023-04-07T06:23:38;101559.47;;;8.81;83.14
36222;BME280;22266;52.340;4.962;2023-04-07T06:26:06;101563.50;;;8.85;83.62
36222;BME280;22266;52.340;4.962;2023-04-07T06:28:35;101562.81;;;8.83;83.25
36222;BME280;22266;52.340;4.962;2023-04-07T06:31:01;101572.72;;;8.82;82.98
36222;BME280;22266;52.340;4.962;2023-04-07T06:33:28;101571.06;;;8.81;82.82
36222;BME280;22266;52.340;4.962;2023-04-07T06:35:55;101573.22;;;8.78;82.48
36222;BME280;22266;52.340;4.962;2023-04-07T06:38:22;101578.91;;;8.75;82.69
36222;BME280;22266;52.340;4.962;2023-04-07T06:40:48;101576.91;;;8.77;83.06
36222;BME280;22266;52.340;4.962;2023-04-07T06:43:15;101575.56;;;8.73;81.99
36222;BME280;22266;52.340;4.962;2023-04-07T06:45:48;101572.03;;;8.72;82.64
36222;BME280;22266;52.340;4.962;2023-04-07T06:48:15;101575.38;;;8.74;82.43
36222;BME280;22266;52.340;4.962;2023-04-07T06:50:45;101585.63;;;8.79;82.80
36222;BME280;22266;52.340;4.962;2023-04-07T06:53:11;101587.16;;;8.81;82.43
36222;BME280;22266;52.340;4.962;2023-04-07T06:55:38;101589.34;;;8.86;82.18
36222;BME280;22266;52.340;4.962;2023-04-07T06:58:04;101593.69;;;8.87;82.08
36222;BME280;22266;52.340;4.962;2023-04-07T07:00:31;101597.56;;;8.84;81.78
36222;BME280;22266;52.340;4.962;2023-04-07T07:02:58;101599.41;;;8.84;82.03
36222;BME280;22266;52.340;4.962;2023-04-07T07:05:24;101601.09;;;8.85;82.34
36222;BME280;22266;52.340;4.962;2023-04-07T07:07:51;101597.25;;;8.87;81.12
36222;BME280;22266;52.340;4.962;2023-04-07T07:10:17;101599.06;;;8.87;80.88
36222;BME280;22266;52.340;4.962;2023-04-07T07:12:45;101610.69;;;8.87;81.52
36222;BME280;22266;52.340;4.962;2023-04-07T07:15:12;101605.31;;;8.87;81.45
36222;BME280;22266;52.340;4.962;2023-04-07T07:17:38;101604.09;;;8.82;81.27
36222;BME280;22266;52.340;4.962;2023-04-07T07:20:05;101602.25;;;8.82;80.75
36222;BME280;22266;52.340;4.962;2023-04-07T07:22:32;101602.22;;;8.74;80.12
36222;BME280;22266;52.340;4.962;2023-04-07T07:24:58;101606.09;;;8.72;80.63
36222;BME280;22266;52.340;4.962;2023-04-07T07:27:25;101609.31;;;8.75;80.65
36222;BME280;22266;52.340;4.962;2023-04-07T07:29:52;101613.47;;;8.78;80.34
36222;BME280;22266;52.340;4.962;2023-04-07T07:32:18;101620.38;;;8.80;80.97
36222;BME280;22266;52.340;4.962;2023-04-07T07:34:45;101614.50;;;8.85;80.51
36222;BME280;22266;52.340;4.962;2023-04-07T07:37:11;101622.91;;;8.90;81.02
36222;BME280;22266;52.340;4.962;2023-04-07T07:39:38;101627.97;;;8.93;80.85
36222;BME280;22266;52.340;4.962;2023-04-07T07:42:04;101630.47;;;8.95;80.50
36222;BME280;22266;52.340;4.962;2023-04-07T07:44:31;101628.31;;;8.98;80.38
36222;BME280;22266;52.340;4.962;2023-04-07T07:46:57;101634.19;;;9.02;79.46
36222;BME280;22266;52.340;4.962;2023-04-07T07:49:24;101630.84;;;9.00;80.18
36222;BME280;22266;52.340;4.962;2023-04-07T07:51:50;101639.56;;;9.02;79.72
36222;BME280;22266;52.340;4.962;2023-04-07T07:54:17;101636.69;;;9.03;79.96
36222;BME280;22266;52.340;4.962;2023-04-07T07:56:43;101643.91;;;9.03;79.17
36222;BME280;22266;52.340;4.962;2023-04-07T07:59:10;101643.78;;;9.04;80.07
36222;BME280;22266;52.340;4.962;2023-04-07T08:01:36;101648.66;;;9.09;80.12
36222;BME280;22266;52.340;4.962;2023-04-07T08:04:03;101648.16;;;9.13;79.49
36222;BME280;22266;52.340;4.962;2023-04-07T08:06:29;101651.53;;;9.15;79.20
36222;BME280;22266;52.340;4.962;2023-04-07T08:08:56;101651.66;;;9.14;78.88
36222;BME280;22266;52.340;4.962;2023-04-07T08:11:23;101651.84;;;9.12;78.87
36222;BME280;22266;52.340;4.962;2023-04-07T08:13:50;101655.69;;;9.10;78.70
36222;BME280;22266;52.340;4.962;2023-04-07T08:16:19;101659.06;;;9.12;79.20
36222;BME280;22266;52.340;4.962;2023-04-07T08:18:47;101650.34;;;9.18;78.63
36222;BME280;22266;52.340;4.962;2023-04-07T08:21:14;101656.91;;;9.15;78.24
36222;BME280;22266;52.340;4.962;2023-04-07T08:23:41;101659.91;;;9.12;77.79
36222;BME280;22266;52.340;4.962;2023-04-07T08:26:07;101661.06;;;9.10;78.48
36222;BME280;22266;52.340;4.962;2023-04-07T08:28:34;101665.78;;;9.08;78.68
36222;BME280;22266;52.340;4.962;2023-04-07T08:31:00;101668.63;;;9.14;78.03
36222;BME280;22266;52.340;4.962;2023-04-07T08:33:27;101669.00;;;9.20;77.87
36222;BME280;22266;52.340;4.962;2023-04-07T08:35:53;101675.19;;;9.20;77.70
36222;BME280;22266;52.340;4.962;2023-04-07T08:38:20;101667.97;;;9.21;78.07
36222;BME280;22266;52.340;4.962;2023-04-07T08:40:53;101673.88;;;9.24;77.86
36222;BME280;22266;52.340;4.962;2023-04-07T08:43:21;101673.88;;;9.32;77.79
36222;BME280;22266;52.340;4.962;2023-04-07T08:45:49;101680.59;;;9.28;77.36
36222;BME280;22266;52.340;4.962;2023-04-07T08:48:22;101685.28;;;9.34;77.61
36222;BME280;22266;52.340;4.962;2023-04-07T08:50:50;101684.63;;;9.40;77.05
36222;BME280;22266;52.340;4.962;2023-04-07T08:53:22;101686.81;;;9.45;77.42
36222;BME280;22266;52.340;4.962;2023-04-07T08:55:49;101688.50;;;9.46;77.20
36222;BME280;22266;52.340;4.962;2023-04-07T08:58:17;101698.22;;;9.47;76.66
36222;BME280;22266;52.340;4.962;2023-04-07T09:00:44;101689.84;;;9.42;76.46
36222;BME280;22266;52.340;4.962;2023-04-07T09:03:11;101682.09;;;9.39;76.85
36222;BME280;22266;52.340;4.962;2023-04-07T09:05:38;101683.63;;;9.41;77.10
36222;BME280;22266;52.340;4.962;2023-04-07T09:08:05;101699.25;;;9.46;77.23
36222;BME280;22266;52.340;4.962;2023-04-07T09:10:32;101694.88;;;9.45;76.99
36222;BME280;22266;52.340;4.962;2023-04-07T09:12:58;101692.84;;;9.47;76.98
36222;BME280;22266;52.340;4.962;2023-04-07T09:15:29;101690.34;;;9.54;76.90
36222;BME280;22266;52.340;4.962;2023-04-07T09:17:57;101698.44;;;9.62;76.89
36222;BME280;22266;52.340;4.962;2023-04-07T09:20:24;101707.00;;;9.65;76.29
36222;BME280;22266;52.340;4.962;2023-04-07T09:22:51;101704.31;;;9.65;76.03
36222;BME280;22266;52.340;4.962;2023-04-07T09:25:22;101702.63;;;9.64;76.16
36222;BME280;22266;52.340;4.962;2023-04-07T09:27:59;101708.16;;;9.63;75.89
36222;BME280;22266;52.340;4.962;2023-04-07T09:30:28;101710.00;;;9.54;75.61
36222;BME280;22266;52.340;4.962;2023-04-07T09:32:55;101711.69;;;9.55;76.12
36222;BME280;22266;52.340;4.962;2023-04-07T09:35:22;101715.91;;;9.58;75.91
36222;BME280;22266;52.340;4.962;2023-04-07T09:40:28;101717.91;;;9.64;75.65
36222;BME280;22266;52.340;4.962;2023-04-07T09:42:55;101712.38;;;9.65;75.47
36222;BME280;22266;52.340;4.962;2023-04-07T09:45:25;101709.00;;;9.72;75.93
36222;BME280;22266;52.340;4.962;2023-04-07T09:48:05;101710.72;;;9.73;75.75
36222;BME280;22266;52.340;4.962;2023-04-07T09:50:35;101714.25;;;9.73;75.01
36222;BME280;22266;52.340;4.962;2023-04-07T09:53:02;101718.09;;;9.71;75.02
36222;BME280;22266;52.340;4.962;2023-04-07T09:55:30;101715.91;;;9.74;74.84
36222;BME280;22266;52.340;4.962;2023-04-07T09:57:58;101722.81;;;9.77;74.43
36222;BME280;22266;52.340;4.962;2023-04-07T10:00:25;101723.66;;;9.77;74.22
36222;BME280;22266;52.340;4.962;2023-04-07T10:02:52;101721.09;;;9.76;73.54
36222;BME280;22266;52.340;4.962;2023-04-07T10:05:19;101718.59;;;9.74;73.76
36222;BME280;22266;52.340;4.962;2023-04-07T10:07:48;101721.59;;;9.71;73.16
36222;BME280;22266;52.340;4.962;2023-04-07T10:10:15;101720.94;;;9.69;74.05
36222;BME280;22266;52.340;4.962;2023-04-07T10:12:43;101715.22;;;9.72;74.50
36222;BME280;22266;52.340;4.962;2023-04-07T10:15:11;101721.94;;;9.76;73.96
36222;BME280;22266;52.340;4.962;2023-04-07T10:17:45;101722.13;;;9.83;73.43
36222;BME280;22266;52.340;4.962;2023-04-07T10:20:16;101724.66;;;9.84;74.15
36222;BME280;22266;52.340;4.962;2023-04-07T10:22:45;101727.69;;;9.81;73.85
36222;BME280;22266;52.340;4.962;2023-04-07T10:25:16;101732.56;;;9.78;73.66
36222;BME280;22266;52.340;4.962;2023-04-07T10:27:49;101733.38;;;9.78;74.37
36222;BME280;22266;52.340;4.962;2023-04-07T10:30:23;101741.44;;;9.78;74.46
36222;BME280;22266;52.340;4.962;2023-04-07T10:32:51;101742.97;;;9.81;74.59
36222;BME280;22266;52.340;4.962;2023-04-07T10:35:20;101740.63;;;9.78;74.72
36222;BME280;22266;52.340;4.962;2023-04-07T10:40:33;101748.19;;;9.90;75.46
36222;BME280;22266;52.340;4.962;2023-04-07T10:43:00;101752.03;;;9.96;75.25
36222;BME280;22266;52.340;4.962;2023-04-07T10:48:15;101753.88;;;9.96;75.49
36222;BME280;22266;52.340;4.962;2023-04-07T10:50:44;101756.75;;;9.94;75.52
36222;BME280;22266;52.340;4.962;2023-04-07T10:53:12;101755.75;;;9.95;75.84
36222;BME280;22266;52.340;4.962;2023-04-07T10:55:45;101757.59;;;9.95;76.02
36222;BME280;22266;52.340;4.962;2023-04-07T10:58:28;101759.63;;;9.93;75.27
36222;BME280;22266;52.340;4.962;2023-04-07T11:03:38;101760.59;;;9.83;76.21
36222;BME280;22266;52.340;4.962;2023-04-07T11:06:09;101760.09;;;9.80;76.83
36222;BME280;22266;52.340;4.962;2023-04-07T11:08:41;101761.94;;;9.79;77.43
36222;BME280;22266;52.340;4.962;2023-04-07T11:11:18;101755.22;;;9.83;77.54
36222;BME280;22266;52.340;4.962;2023-04-07T11:13:49;101757.91;;;9.83;76.90
36222;BME280;22266;52.340;4.962;2023-04-07T11:16:18;101764.66;;;9.87;76.90
36222;BME280;22266;52.340;4.962;2023-04-07T11:18:46;101760.78;;;9.90;77.30
36222;BME280;22266;52.340;4.962;2023-04-07T11:21:17;101764.00;;;9.94;76.37
36222;BME280;22266;52.340;4.962;2023-04-07T11:23:45;101763.81;;;9.95;76.88
36222;BME280;22266;52.340;4.962;2023-04-07T11:26:14;101771.88;;;9.95;77.16
36222;BME280;22266;52.340;4.962;2023-04-07T11:28:45;101769.88;;;9.97;76.56
36222;BME280;22266;52.340;4.962;2023-04-07T11:31:20;101776.09;;;10.06;76.97
36222;BME280;22266;52.340;4.962;2023-04-07T11:33:51;101787.88;;;10.05;76.60
36222;BME280;22266;52.340;4.962;2023-04-07T11:36:26;101782.81;;;10.02;76.72
36222;BME280;22266;52.340;4.962;2023-04-07T11:38:53;101780.97;;;9.94;76.64
36222;BME280;22266;52.340;4.962;2023-04-07T11:41:22;101782.81;;;9.94;77.58
36222;BME280;22266;52.340;4.962;2023-04-07T11:46:31;101784.16;;;10.06;77.14
36222;BME280;22266;52.340;4.962;2023-04-07T11:49:08;101790.22;;;10.08;77.47
36222;BME280;22266;52.340;4.962;2023-04-07T11:51:35;101787.50;;;10.08;77.20
36222;BME280;22266;52.340;4.962;2023-04-07T11:54:02;101783.16;;;10.07;77.56
36222;BME280;22266;52.340;4.962;2023-04-07T11:56:29;101791.56;;;10.12;78.18
36222;BME280;22266;52.340;4.962;2023-04-07T11:58:56;101789.03;;;10.10;77.76
36222;BME280;22266;52.340;4.962;2023-04-07T12:01:37;101796.09;;;10.03;77.49
36222;BME280;22266;52.340;4.962;2023-04-07T12:04:04;101797.44;;;9.99;77.91
36222;BME280;22266;52.340;4.962;2023-04-07T12:06:33;101800.63;;;9.95;78.06
36222;BME280;22266;52.340;4.962;2023-04-07T12:09:01;101803.50;;;9.93;78.10
36222;BME280;22266;52.340;4.962;2023-04-07T12:11:28;101805.50;;;9.91;78.13
36222;BME280;22266;52.340;4.962;2023-04-07T12:13:55;101809.00;;;9.83;78.49
36222;BME280;22266;52.340;4.962;2023-04-07T12:16:22;101806.31;;;9.83;79.04
36222;BME280;22266;52.340;4.962;2023-04-07T12:18:49;101803.31;;;9.86;78.46
36222;BME280;22266;52.340;4.962;2023-04-07T12:21:17;101811.38;;;9.86;78.67
36222;BME280;22266;52.340;4.962;2023-04-07T12:23:45;101806.19;;;9.85;78.18
36222;BME280;22266;52.340;4.962;2023-04-07T12:26:13;101808.03;;;9.84;78.69
36222;BME280;22266;52.340;4.962;2023-04-07T12:28:39;101813.75;;;9.89;78.81
36222;BME280;22266;52.340;4.962;2023-04-07T12:31:06;101819.78;;;9.91;77.87
36222;BME280;22266;52.340;4.962;2023-04-07T12:33:32;101822.13;;;9.86;78.33
36222;BME280;22266;52.340;4.962;2023-04-07T12:35:58;101819.13;;;9.89;78.98
36222;BME280;22266;52.340;4.962;2023-04-07T12:38:25;101820.81;;;9.99;79.31
36222;BME280;22266;52.340;4.962;2023-04-07T12:40:52;101823.31;;;10.08;79.18
36222;BME280;22266;52.340;4.962;2023-04-07T12:43:19;101821.97;;;10.12;78.77
36222;BME280;22266;52.340;4.962;2023-04-07T12:45:45;101829.91;;;10.22;78.44
36222;BME280;22266;52.340;4.962;2023-04-07T12:48:12;101825.22;;;10.32;78.32
36222;BME280;22266;52.340;4.962;2023-04-07T12:50:38;101830.09;;;10.29;78.09
36222;BME280;22266;52.340;4.962;2023-04-07T12:53:05;101822.88;;;10.29;77.08
36222;BME280;22266;52.340;4.962;2023-04-07T12:55:32;101822.16;;;10.19;76.26
36222;BME280;22266;52.340;4.962;2023-04-07T12:57:59;101832.75;;;10.12;77.18
36222;BME280;22266;52.340;4.962;2023-04-07T13:00:25;101834.78;;;10.02;77.23
36222;BME280;22266;52.340;4.962;2023-04-07T13:02:52;101839.81;;;9.97;77.22
36222;BME280;22266;52.340;4.962;2023-04-07T13:05:19;101843.31;;;9.89;76.86
36222;BME280;22266;52.340;4.962;2023-04-07T13:07:45;101847.38;;;9.94;78.12
36222;BME280;22266;52.340;4.962;2023-04-07T13:10:15;101848.72;;;9.98;77.76
36222;BME280;22266;52.340;4.962;2023-04-07T13:12:41;101843.84;;;10.01;77.58
36222;BME280;22266;52.340;4.962;2023-04-07T13:15:08;101846.03;;;10.06;77.77
36222;BME280;22266;52.340;4.962;2023-04-07T13:17:34;101846.38;;;10.11;77.91
36222;BME280;22266;52.340;4.962;2023-04-07T13:20:05;101844.53;;;10.11;77.03
36222;BME280;22266;52.340;4.962;2023-04-07T13:22:32;101849.56;;;10.14;77.41
36222;BME280;22266;52.340;4.962;2023-04-07T13:25:01;101840.66;;;10.14;76.91